createdAt,value
2017-11-29T00:01:42.899Z,86.41
2017-11-29T00:04:10.436Z,86.59
2017-11-29T00:06:37.824Z,86.37
2017-11-29T00:09:05.274Z,86.53
2017-11-29T00:11:32.661Z,86.13
2017-11-29T00:14:00.116Z,86.27
2017-11-29T00:16:27.513Z,86.73
2017-11-29T00:18:55.053Z,86.29
2017-11-29T00:21:22.462Z,86.54
2017-11-29T00:23:49.892Z,86.62
2017-11-29T00:26:17.363Z,86.47
2017-11-29T00:28:44.793Z,86.03
2017-11-29T00:31:12.250Z,86.28
2017-11-29T00:33:39.768Z,86.34
2017-11-29T00:36:07.242Z,86.48
2017-11-29T00:38:34.711Z,86.31
2017-11-29T00:41:02.183Z,86.37
2017-11-29T00:43:29.860Z,86.88
2017-11-29T00:45:57.407Z,86.53
2017-11-29T00:48:26.065Z,86.47
2017-11-29T00:50:53.563Z,86.32
2017-11-29T00:53:20.952Z,86.71
2017-11-29T00:55:48.543Z,86.65
2017-11-29T00:58:15.934Z,87.32
2017-11-29T01:00:43.466Z,87.58
2017-11-29T01:03:10.853Z,87.57
2017-11-29T01:05:38.320Z,87.87
2017-11-29T01:08:05.708Z,87.63
2017-11-29T01:10:33.154Z,87.76
2017-11-29T01:13:00.621Z,87.15
2017-11-29T01:15:28.278Z,87.42
2017-11-29T01:17:56.260Z,86.86
2017-11-29T01:20:23.810Z,86.84
2017-11-29T01:22:51.235Z,86.84
2017-11-29T01:25:18.666Z,86.44
2017-11-29T01:27:46.047Z,86.41
2017-11-29T01:30:13.614Z,86.57
2017-11-29T01:32:41.068Z,86.26
2017-11-29T01:35:08.672Z,86.34
2017-11-29T01:37:36.055Z,86.27
2017-11-29T01:40:03.482Z,85.76
2017-11-29T01:42:30.886Z,85.87
2017-11-29T01:44:58.552Z,86.00
2017-11-29T01:47:26.280Z,86.37
2017-11-29T01:49:53.880Z,86.48
2017-11-29T01:52:21.367Z,87.52
2017-11-29T01:54:48.765Z,87.86
2017-11-29T01:57:16.188Z,88.31
2017-11-29T01:59:43.600Z,88.60
2017-11-29T02:02:11.019Z,88.56
2017-11-29T02:04:38.419Z,88.63
2017-11-29T02:07:05.842Z,88.86
2017-11-29T02:09:33.256Z,88.66
2017-11-29T02:12:00.826Z,88.58
2017-11-29T02:14:28.358Z,88.52
2017-11-29T02:16:55.924Z,88.80
2017-11-29T02:19:23.757Z,88.67
2017-11-29T02:21:51.321Z,88.90
2017-11-29T02:24:18.715Z,89.10
2017-11-29T02:26:46.156Z,89.13
2017-11-29T02:29:13.627Z,88.81
2017-11-29T02:31:41.097Z,88.57
2017-11-29T02:34:08.568Z,88.16
2017-11-29T02:36:36.012Z,88.04
2017-11-29T02:39:03.545Z,87.91
2017-11-29T02:41:42.986Z,87.76
2017-11-29T02:44:10.374Z,87.69
2017-11-29T02:46:37.907Z,88.24
2017-11-29T02:49:05.300Z,88.39
2017-11-29T02:51:32.734Z,88.53
2017-11-29T02:54:00.268Z,88.85
2017-11-29T02:56:27.783Z,89.00
2017-11-29T02:58:55.396Z,88.82
2017-11-29T03:01:22.979Z,88.68
2017-11-29T03:03:50.499Z,88.77
2017-11-29T03:06:17.939Z,88.76
2017-11-29T03:08:45.359Z,88.66
2017-11-29T03:11:12.829Z,88.58
2017-11-29T03:13:40.251Z,88.68
2017-11-29T03:16:07.632Z,88.77
2017-11-29T03:18:35.060Z,89.19
2017-11-29T03:21:02.481Z,89.07
2017-11-29T03:23:30.011Z,88.82
2017-11-29T03:25:57.464Z,88.62
2017-11-29T03:28:24.976Z,89.09
2017-11-29T03:30:52.447Z,88.93
2017-11-29T03:33:19.984Z,88.89
2017-11-29T03:35:47.372Z,88.57
2017-11-29T03:38:14.922Z,87.85
2017-11-29T03:40:42.392Z,87.91
2017-11-29T03:43:09.912Z,87.82
2017-11-29T03:45:37.313Z,87.10
2017-11-29T03:48:04.761Z,86.54
2017-11-29T03:50:32.149Z,86.25
2017-11-29T03:52:59.819Z,86.29
2017-11-29T03:55:27.384Z,86.12
2017-11-29T03:57:55.299Z,85.91
2017-11-29T04:00:22.770Z,85.89
2017-11-29T04:02:50.296Z,86.38
2017-11-29T04:05:17.689Z,86.42
2017-11-29T04:07:45.204Z,86.64
2017-11-29T04:10:12.606Z,86.80
2017-11-29T04:12:40.065Z,87.09
2017-11-29T04:15:07.473Z,86.61
2017-11-29T04:17:34.905Z,86.60
2017-11-29T04:20:02.377Z,86.88
2017-11-29T04:22:29.795Z,86.66
2017-11-29T04:24:59.687Z,86.95
2017-11-29T04:27:29.913Z,86.85
2017-11-29T04:30:08.265Z,87.12
2017-11-29T04:32:40.830Z,86.54
2017-11-29T04:35:08.351Z,88.48
2017-11-29T04:37:35.740Z,84.56
2017-11-29T04:40:03.172Z,85.23
2017-11-29T04:42:30.564Z,85.40
2017-11-29T04:44:58.039Z,83.09
2017-11-29T04:47:25.455Z,82.97
2017-11-29T04:49:52.874Z,83.33
2017-11-29T04:52:20.269Z,82.69
2017-11-29T04:54:47.710Z,82.96
2017-11-29T04:57:15.098Z,84.03
2017-11-29T04:59:42.533Z,83.67
2017-11-29T05:02:09.948Z,84.31
2017-11-29T05:04:37.423Z,83.10
2017-11-29T05:07:04.811Z,83.35
2017-11-29T05:09:32.251Z,83.13
2017-11-29T05:11:59.651Z,83.12
2017-11-29T05:14:27.111Z,82.63
2017-11-29T05:16:54.539Z,82.71
2017-11-29T05:19:21.964Z,82.40
2017-11-29T05:21:49.364Z,82.25
2017-11-29T05:24:16.788Z,81.24
2017-11-29T05:26:44.212Z,81.40
2017-11-29T05:29:11.667Z,81.27
2017-11-29T05:31:39.080Z,81.60
2017-11-29T05:34:06.523Z,82.08
2017-11-29T05:36:33.913Z,81.40
2017-11-29T05:39:01.303Z,81.66
2017-11-29T05:41:28.748Z,81.90
2017-11-29T05:43:56.203Z,81.85
2017-11-29T05:46:23.674Z,81.08
2017-11-29T05:48:51.062Z,81.19
2017-11-29T05:51:18.495Z,81.44
2017-11-29T05:53:45.885Z,81.83
2017-11-29T05:56:13.376Z,82.59
2017-11-29T05:58:40.840Z,82.39
2017-11-29T06:01:08.309Z,82.26
2017-11-29T06:03:35.783Z,82.37
2017-11-29T06:06:03.225Z,81.71
2017-11-29T06:08:30.623Z,82.33
2017-11-29T06:10:58.095Z,81.94
2017-11-29T06:13:25.593Z,81.88
2017-11-29T06:15:53.105Z,82.39
2017-11-29T06:18:20.600Z,82.19
2017-11-29T06:20:48.072Z,81.92
2017-11-29T06:23:15.546Z,81.98
2017-11-29T06:25:43.024Z,81.39
2017-11-29T06:28:10.423Z,81.49
2017-11-29T06:30:37.860Z,80.77
2017-11-29T06:33:05.324Z,81.45
2017-11-29T06:35:32.754Z,81.22
2017-11-29T06:38:00.152Z,81.15
2017-11-29T06:40:27.648Z,81.33
2017-11-29T06:42:55.080Z,81.43
2017-11-29T06:45:22.578Z,81.12
2017-11-29T06:47:50.024Z,81.12
2017-11-29T06:50:17.505Z,81.45
2017-11-29T06:52:44.933Z,80.46
2017-11-29T06:55:12.332Z,80.85
2017-11-29T06:57:39.827Z,81.04
2017-11-29T07:00:07.288Z,80.78
2017-11-29T07:02:34.715Z,80.95
2017-11-29T07:05:02.098Z,80.34
2017-11-29T07:07:29.572Z,80.94
2017-11-29T07:09:57.001Z,79.87
2017-11-29T07:12:24.505Z,80.53
2017-11-29T07:14:52.013Z,79.47
2017-11-29T07:17:19.480Z,79.62
2017-11-29T07:19:46.889Z,79.74
2017-11-29T07:22:14.425Z,79.53
2017-11-29T07:24:41.884Z,80.22
2017-11-29T07:27:09.360Z,79.76
2017-11-29T07:29:36.841Z,79.90
2017-11-29T07:32:04.341Z,79.85
2017-11-29T07:34:31.773Z,79.50
2017-11-29T07:36:59.258Z,79.31
2017-11-29T07:39:26.797Z,79.96
2017-11-29T07:41:54.305Z,79.72
2017-11-29T07:44:21.718Z,79.45
2017-11-29T07:46:49.155Z,78.28
2017-11-29T07:49:16.595Z,78.76
2017-11-29T07:51:44.066Z,78.60
2017-11-29T07:54:11.458Z,78.23
2017-11-29T07:56:38.896Z,78.63
2017-11-29T07:59:06.285Z,79.05
2017-11-29T08:01:33.685Z,79.51
2017-11-29T08:04:01.119Z,79.56
2017-11-29T08:06:28.591Z,78.70
2017-11-29T08:08:56.213Z,78.34
2017-11-29T08:11:23.673Z,78.23
2017-11-29T08:13:51.188Z,78.35
2017-11-29T08:16:18.771Z,77.94
2017-11-29T08:18:46.198Z,77.76
2017-11-29T08:21:13.606Z,77.25
2017-11-29T08:23:41.066Z,78.07
2017-11-29T08:26:08.468Z,78.36
2017-11-29T08:28:35.903Z,76.99
2017-11-29T08:31:03.295Z,76.37
2017-11-29T08:33:30.756Z,77.00
2017-11-29T08:35:58.161Z,76.60
2017-11-29T08:38:25.612Z,75.91
2017-11-29T08:40:53.043Z,75.38
2017-11-29T08:43:20.486Z,75.60
2017-11-29T08:45:47.988Z,75.27
2017-11-29T08:48:15.431Z,75.51
2017-11-29T08:50:42.831Z,75.56
2017-11-29T08:53:10.294Z,75.24
2017-11-29T08:55:37.675Z,74.68
2017-11-29T08:58:05.116Z,74.75
2017-11-29T09:00:32.505Z,73.23
2017-11-29T09:02:59.969Z,74.29
2017-11-29T09:05:27.401Z,73.60
2017-11-29T09:07:54.866Z,73.38
2017-11-29T09:10:22.249Z,72.27
2017-11-29T09:12:49.635Z,73.31
2017-11-29T09:15:17.069Z,72.86
2017-11-29T09:17:44.467Z,72.61
2017-11-29T09:20:12.007Z,71.50
2017-11-29T09:22:39.404Z,72.45
2017-11-29T09:25:06.875Z,72.21
2017-11-29T09:27:34.277Z,73.21
2017-11-29T09:30:01.711Z,72.83
2017-11-29T09:32:29.216Z,72.49
2017-11-29T09:34:56.681Z,72.57
2017-11-29T09:37:24.115Z,72.77
2017-11-29T09:39:51.568Z,73.20
2017-11-29T09:42:18.976Z,71.29
2017-11-29T09:44:46.419Z,71.26
2017-11-29T09:47:13.818Z,72.28
2017-11-29T09:49:41.270Z,72.70
2017-11-29T09:52:08.670Z,71.52
2017-11-29T09:54:36.164Z,73.09
2017-11-29T09:57:03.555Z,73.01
2017-11-29T09:59:31.007Z,72.68
2017-11-29T10:01:58.403Z,72.55
2017-11-29T10:04:25.873Z,73.57
2017-11-29T10:06:53.293Z,73.15
2017-11-29T10:09:20.765Z,73.17
2017-11-29T10:11:48.164Z,73.41
2017-11-29T10:14:15.602Z,72.11
2017-11-29T10:16:42.998Z,71.52
2017-11-29T10:19:10.528Z,71.78
2017-11-29T10:21:37.925Z,72.41
2017-11-29T10:24:05.358Z,72.68
2017-11-29T10:26:32.827Z,71.38
2017-11-29T10:29:00.293Z,72.83
2017-11-29T10:31:27.760Z,73.42
2017-11-29T10:33:55.305Z,73.24
2017-11-29T10:36:22.740Z,73.00
2017-11-29T10:38:50.127Z,73.34
2017-11-29T10:41:17.640Z,73.70
2017-11-29T10:43:45.112Z,74.22
2017-11-29T10:46:12.571Z,74.85
2017-11-29T10:48:40.056Z,75.08
2017-11-29T10:51:07.503Z,74.59
2017-11-29T10:53:34.997Z,75.13
2017-11-29T10:56:02.446Z,75.07
2017-11-29T10:58:29.947Z,73.58
2017-11-29T11:00:57.429Z,73.79
2017-11-29T11:03:24.838Z,74.77
2017-11-29T11:05:52.286Z,72.33
2017-11-29T11:08:19.689Z,71.95
2017-11-29T11:10:47.192Z,69.84
2017-11-29T11:13:14.658Z,69.05
2017-11-29T11:15:42.111Z,67.37
2017-11-29T11:18:09.508Z,68.16
2017-11-29T11:20:36.964Z,68.46
2017-11-29T11:23:04.354Z,69.48
2017-11-29T11:25:31.788Z,67.27
2017-11-29T11:27:59.201Z,69.55
2017-11-29T11:30:26.781Z,68.73
2017-11-29T11:32:54.207Z,69.01
2017-11-29T11:35:21.652Z,68.09
2017-11-29T11:37:49.061Z,68.31
2017-11-29T11:40:16.517Z,68.39
2017-11-29T11:42:43.924Z,67.87
2017-11-29T11:45:11.324Z,66.80
2017-11-29T11:47:38.828Z,67.35
2017-11-29T11:50:06.216Z,68.41
2017-11-29T11:52:33.664Z,68.23
2017-11-29T11:55:01.137Z,67.79
2017-11-29T11:57:28.633Z,69.71
2017-11-29T11:59:56.088Z,70.02
2017-11-29T12:02:23.560Z,70.10
2017-11-29T12:04:50.953Z,70.78
2017-11-29T12:07:18.387Z,70.66
2017-11-29T12:09:45.787Z,70.26
2017-11-29T12:12:13.234Z,71.06
2017-11-29T12:14:40.688Z,71.83
2017-11-29T12:17:08.259Z,73.06
2017-11-29T12:19:35.734Z,73.08
2017-11-29T12:22:03.185Z,74.35
2017-11-29T12:24:30.575Z,73.94
2017-11-29T12:26:58.032Z,68.99
2017-11-29T12:29:25.543Z,71.09
2017-11-29T12:31:53.043Z,72.58
2017-11-29T12:34:20.491Z,71.40
2017-11-29T12:36:47.925Z,72.07
2017-11-29T12:39:15.328Z,72.21
2017-11-29T12:41:42.857Z,72.42
2017-11-29T12:44:10.328Z,72.46
2017-11-29T12:46:37.731Z,72.37
2017-11-29T12:49:17.239Z,73.76
2017-11-29T12:51:44.645Z,72.59
2017-11-29T12:54:12.224Z,73.15
2017-11-29T12:56:39.659Z,72.79
2017-11-29T12:59:07.101Z,72.93
2017-11-29T13:01:34.509Z,73.43
2017-11-29T13:04:01.976Z,73.77
2017-11-29T13:06:29.379Z,73.26
2017-11-29T13:08:56.824Z,73.44
2017-11-29T13:11:24.300Z,74.27
2017-11-29T13:13:51.769Z,75.69
2017-11-29T13:16:19.168Z,73.84
2017-11-29T13:18:53.983Z,72.83
2017-11-29T13:21:27.869Z,72.25
2017-11-29T13:23:57.393Z,74.55
2017-11-29T13:26:24.869Z,72.86
2017-11-29T13:28:52.338Z,73.90
2017-11-29T13:31:19.754Z,74.72
2017-11-29T13:33:47.196Z,74.86
2017-11-29T13:36:14.638Z,74.56
2017-11-29T13:38:42.104Z,74.24
2017-11-29T13:41:09.500Z,74.56
2017-11-29T13:43:36.943Z,75.58
2017-11-29T13:46:04.413Z,74.54
2017-11-29T13:48:31.880Z,75.67
2017-11-29T13:50:59.371Z,74.70
2017-11-29T13:53:26.928Z,75.28
2017-11-29T13:55:54.376Z,74.46
2017-11-29T13:58:21.876Z,74.35
2017-11-29T14:00:49.263Z,73.61
2017-11-29T14:03:16.724Z,73.14
2017-11-29T14:05:44.173Z,73.41
2017-11-29T14:08:11.666Z,72.97
2017-11-29T14:10:39.096Z,73.55
2017-11-29T14:13:06.505Z,73.66
2017-11-29T14:15:34.029Z,72.01
2017-11-29T14:18:01.529Z,72.26
2017-11-29T14:20:29.101Z,72.62
2017-11-29T14:22:56.538Z,72.07
2017-11-29T14:25:23.984Z,72.14
2017-11-29T14:27:51.377Z,71.11
2017-11-29T14:30:18.822Z,72.04
2017-11-29T14:32:46.217Z,71.13
2017-11-29T14:35:13.679Z,70.71
2017-11-29T14:37:41.084Z,70.20
2017-11-29T14:40:08.553Z,69.75
2017-11-29T14:42:35.947Z,70.37
2017-11-29T14:45:03.373Z,70.50
2017-11-29T14:47:30.860Z,69.79
2017-11-29T14:49:58.358Z,70.96
2017-11-29T14:52:26.096Z,71.97
2017-11-29T14:54:53.589Z,72.15
2017-11-29T14:57:21.163Z,71.13
2017-11-29T14:59:48.633Z,71.90
2017-11-29T15:02:16.103Z,73.01
2017-11-29T15:04:43.540Z,72.29
2017-11-29T15:07:10.953Z,72.35
2017-11-29T15:09:38.504Z,72.61
2017-11-29T15:12:05.910Z,72.64
2017-11-29T15:14:33.357Z,73.31
2017-11-29T15:17:01.636Z,73.45
2017-11-29T15:19:29.107Z,71.84
2017-11-29T15:21:56.593Z,72.25
2017-11-29T15:24:24.137Z,72.80
2017-11-29T15:26:51.585Z,72.62
2017-11-29T15:29:18.992Z,72.79
2017-11-29T15:31:46.443Z,73.46
2017-11-29T15:34:13.919Z,74.18
2017-11-29T15:36:41.390Z,74.59
2017-11-29T15:39:08.861Z,73.40
2017-11-29T15:41:36.291Z,73.36
2017-11-29T15:44:03.691Z,73.68
2017-11-29T15:46:31.194Z,74.45
2017-11-29T15:48:58.620Z,74.19
2017-11-29T15:51:26.099Z,73.39
2017-11-29T15:53:53.545Z,73.85
2017-11-29T15:56:20.995Z,75.04
2017-11-29T15:58:48.401Z,75.52
2017-11-29T16:01:15.828Z,75.85
2017-11-29T16:03:43.275Z,76.34
2017-11-29T16:06:10.736Z,76.81
2017-11-29T16:08:38.127Z,77.15
2017-11-29T16:11:05.681Z,76.72
2017-11-29T16:13:33.089Z,77.80
2017-11-29T16:16:00.585Z,78.19
2017-11-29T16:18:28.005Z,78.37
2017-11-29T16:20:55.448Z,78.92
2017-11-29T16:23:22.843Z,79.48
2017-11-29T16:25:50.381Z,79.44
2017-11-29T16:28:17.773Z,79.65
2017-11-29T16:30:45.165Z,79.53
2017-11-29T16:33:12.737Z,79.51
2017-11-29T16:35:40.137Z,79.34
2017-11-29T16:38:07.597Z,79.39
2017-11-29T16:40:35.004Z,79.84
2017-11-29T16:43:02.475Z,79.26
2017-11-29T16:45:29.874Z,79.84
2017-11-29T16:47:57.353Z,79.96
2017-11-29T16:50:24.816Z,80.74
2017-11-29T16:52:52.265Z,80.39
2017-11-29T16:55:19.739Z,80.14
2017-11-29T16:57:47.195Z,80.30
2017-11-29T17:00:14.594Z,80.30
2017-11-29T17:02:42.072Z,80.89
2017-11-29T17:05:09.463Z,81.00
2017-11-29T17:07:36.955Z,81.29
2017-11-29T17:10:04.538Z,82.24
2017-11-29T17:12:32.056Z,81.96
2017-11-29T17:14:59.542Z,81.93
2017-11-29T17:17:27.081Z,81.67
2017-11-29T17:19:54.754Z,81.62
2017-11-29T17:22:22.220Z,81.52
2017-11-29T17:24:49.664Z,81.97
2017-11-29T17:27:17.202Z,82.04
2017-11-29T17:29:56.601Z,82.36
2017-11-29T17:32:24.119Z,82.68
2017-11-29T17:34:51.515Z,82.74
2017-11-29T17:37:18.955Z,82.80
2017-11-29T17:39:46.364Z,83.06
2017-11-29T17:42:13.823Z,82.81
2017-11-29T17:44:41.214Z,83.21
2017-11-29T17:47:08.786Z,83.56
2017-11-29T17:49:36.253Z,83.65
2017-11-29T17:52:03.642Z,83.47
2017-11-29T17:54:31.087Z,83.37
2017-11-29T17:56:58.555Z,83.60
2017-11-29T17:59:25.995Z,83.51
2017-11-29T18:01:53.397Z,84.06
2017-11-29T18:04:20.834Z,84.07
2017-11-29T18:06:48.229Z,83.95
2017-11-29T18:09:15.663Z,83.76
2017-11-29T18:11:43.060Z,83.87
2017-11-29T18:14:10.557Z,83.50
2017-11-29T18:16:38.007Z,83.67
2017-11-29T18:19:05.443Z,83.40
2017-11-29T18:21:32.859Z,83.24
2017-11-29T18:24:00.325Z,82.94
2017-11-29T18:26:27.731Z,82.37
2017-11-29T18:28:55.274Z,82.58
2017-11-29T18:31:22.669Z,82.68
2017-11-29T18:33:50.302Z,82.19
2017-11-29T18:36:17.772Z,81.81
2017-11-29T18:38:45.237Z,81.69
2017-11-29T18:41:12.891Z,81.92
2017-11-29T18:43:40.394Z,81.80
2017-11-29T18:46:07.813Z,81.73
2017-11-29T18:48:35.275Z,82.16
2017-11-29T18:51:02.693Z,81.90
2017-11-29T18:53:30.178Z,82.21
2017-11-29T18:55:57.608Z,82.53
2017-11-29T18:58:25.052Z,82.57
2017-11-29T19:00:52.463Z,83.27
2017-11-29T19:03:19.944Z,83.20
2017-11-29T19:05:47.418Z,83.60
2017-11-29T19:08:14.818Z,83.71
2017-11-29T19:10:42.280Z,83.64
2017-11-29T19:13:09.668Z,83.72
2017-11-29T19:15:37.109Z,83.78
2017-11-29T19:18:04.508Z,83.97
2017-11-29T19:20:32.048Z,84.52
2017-11-29T19:22:59.505Z,85.75
2017-11-29T19:25:26.969Z,85.07
2017-11-29T19:27:54.454Z,84.86
2017-11-29T19:30:21.945Z,84.93
2017-11-29T19:32:49.343Z,84.76
2017-11-29T19:35:16.828Z,84.95
2017-11-29T19:37:44.246Z,84.72
2017-11-29T19:40:11.778Z,84.82
2017-11-29T19:42:39.168Z,84.60
2017-11-29T19:45:06.931Z,86.70
2017-11-29T19:47:34.352Z,84.37
2017-11-29T19:50:01.759Z,83.72
2017-11-29T19:52:29.241Z,84.21
2017-11-29T19:54:56.783Z,84.21
2017-11-29T19:57:24.294Z,84.16
2017-11-29T19:59:51.827Z,83.69
2017-11-29T20:02:19.217Z,83.96
2017-11-29T20:04:46.663Z,83.36
2017-11-29T20:07:14.071Z,83.39
2017-11-29T20:09:41.525Z,83.24
2017-11-29T20:12:08.924Z,83.29
2017-11-29T20:14:36.399Z,83.07
2017-11-29T20:17:03.799Z,83.39
2017-11-29T20:19:31.314Z,83.54
2017-11-29T20:21:58.742Z,83.60
2017-11-29T20:24:26.230Z,83.84
2017-11-29T20:26:53.744Z,84.20
2017-11-29T20:29:21.157Z,83.83
2017-11-29T20:31:48.639Z,83.88
2017-11-29T20:34:16.038Z,84.09
2017-11-29T20:36:43.528Z,84.76
2017-11-29T20:39:11.877Z,84.47
2017-11-29T20:41:39.368Z,84.51
2017-11-29T20:44:06.836Z,85.40
2017-11-29T20:46:34.334Z,85.36
2017-11-29T20:49:01.734Z,85.42
2017-11-29T20:51:29.377Z,85.27
2017-11-29T20:53:56.860Z,86.03
2017-11-29T20:56:24.569Z,86.29
2017-11-29T20:58:52.016Z,86.84
2017-11-29T21:01:19.578Z,86.86
2017-11-29T21:03:47.015Z,86.42
2017-11-29T21:06:14.484Z,86.65
2017-11-29T21:08:41.918Z,86.92
2017-11-29T21:11:09.420Z,86.76
2017-11-29T21:13:36.820Z,86.62
2017-11-29T21:16:04.289Z,86.68
2017-11-29T21:18:31.692Z,87.13
2017-11-29T21:20:59.195Z,87.35
2017-11-29T21:23:26.663Z,87.08
2017-11-29T21:25:54.107Z,87.20
2017-11-29T21:28:21.616Z,87.29
2017-11-29T21:30:49.087Z,87.00
2017-11-29T21:33:16.653Z,86.51
2017-11-29T21:35:44.158Z,86.35
2017-11-29T21:38:11.607Z,86.79
2017-11-29T21:40:39.059Z,86.77
2017-11-29T21:43:06.537Z,86.73
2017-11-29T21:45:34.088Z,86.57
2017-11-29T21:48:01.536Z,86.74
2017-11-29T21:50:28.956Z,86.64
2017-11-29T21:52:56.438Z,86.68
2017-11-29T21:55:23.899Z,87.34
2017-11-29T21:57:51.346Z,87.36
2017-11-29T22:00:18.748Z,87.44
2017-11-29T22:02:46.196Z,87.65
2017-11-29T22:05:13.621Z,87.88
2017-11-29T22:07:41.151Z,88.01
2017-11-29T22:10:08.607Z,87.58
2017-11-29T22:12:38.457Z,88.09
2017-11-29T22:15:10.807Z,87.70
2017-11-29T22:17:43.902Z,87.18
2017-11-29T22:20:16.927Z,87.12
2017-11-29T22:22:49.405Z,87.47
2017-11-29T22:25:21.820Z,87.41
2017-11-29T22:27:54.979Z,87.00
2017-11-29T22:30:22.485Z,87.21
2017-11-29T22:32:49.931Z,87.52
2017-11-29T22:35:17.417Z,87.48
2017-11-29T22:37:44.994Z,87.45
2017-11-29T22:40:12.484Z,87.19
2017-11-29T22:42:40.058Z,86.64
2017-11-29T22:45:07.524Z,86.79
2017-11-29T22:47:35.245Z,87.52
2017-11-29T22:50:02.641Z,87.81
2017-11-29T22:52:30.109Z,87.70
2017-11-29T22:54:57.561Z,87.45
2017-11-29T22:57:24.999Z,86.88
2017-11-29T22:59:52.482Z,87.47
2017-11-29T23:02:19.874Z,87.51
2017-11-29T23:04:47.424Z,88.07
2017-11-29T23:07:15.712Z,87.73
2017-11-29T23:09:43.439Z,87.15
2017-11-29T23:12:11.668Z,87.25
2017-11-29T23:14:39.968Z,87.42
2017-11-29T23:17:07.392Z,87.22
2017-11-29T23:19:34.869Z,87.12
2017-11-29T23:22:02.421Z,86.60
2017-11-29T23:24:29.850Z,87.04
2017-11-29T23:26:57.268Z,87.49
2017-11-29T23:29:24.736Z,86.94
2017-11-29T23:31:52.133Z,86.48
2017-11-29T23:34:19.676Z,86.51
2017-11-29T23:36:47.155Z,86.18
2017-11-29T23:39:14.631Z,85.79
2017-11-29T23:41:42.052Z,85.57
2017-11-29T23:44:09.480Z,85.28
2017-11-29T23:46:36.882Z,85.12
2017-11-29T23:49:04.336Z,84.34
2017-11-29T23:51:31.761Z,84.45
2017-11-29T23:53:59.332Z,83.54
2017-11-29T23:56:26.833Z,83.44
2017-11-29T23:58:54.328Z,83.64
